createdAt,value
2023-01-31T00:00:04.101Z,0
2023-01-31T00:01:05.104Z,0
2023-01-31T00:02:06.332Z,0
2023-01-31T00:03:06.802Z,0
2023-01-31T00:04:08.222Z,0
2023-01-31T00:05:08.715Z,0
2023-01-31T00:06:08.919Z,0
2023-01-31T00:07:10.434Z,0
2023-01-31T00:08:10.354Z,0
2023-01-31T00:09:11.053Z,0
2023-01-31T00:10:11.043Z,0
2023-01-31T00:11:12.272Z,0
2023-01-31T00:12:12.215Z,0
2023-01-31T00:13:13.221Z,0
2023-01-31T00:14:13.479Z,0
2023-01-31T00:15:13.713Z,0
2023-01-31T00:16:14.410Z,0
2023-01-31T00:17:15.050Z,0
2023-01-31T00:18:15.972Z,0
2023-01-31T00:19:17.165Z,0
2023-01-31T00:20:17.843Z,0
2023-01-31T00:21:17.831Z,0
2023-01-31T00:22:18.948Z,0
2023-01-31T00:23:19.162Z,0
2023-01-31T00:24:19.909Z,0
2023-01-31T00:25:20.852Z,0
2023-01-31T00:26:21.589Z,0
2023-01-31T00:27:21.865Z,0
2023-01-31T00:28:23.114Z,0
2023-01-31T00:29:23.126Z,0
2023-01-31T00:30:23.368Z,0
2023-01-31T00:31:24.788Z,0
2023-01-31T00:32:25.067Z,0
2023-01-31T00:33:24.999Z,0
2023-01-31T00:34:25.612Z,0
2023-01-31T00:35:27.565Z,0
2023-01-31T00:36:27.056Z,0
2023-01-31T00:37:27.984Z,0
2023-01-31T00:38:28.625Z,0
2023-01-31T00:39:29.262Z,0
2023-01-31T00:40:30.202Z,0
2023-01-31T00:41:31.480Z,0
2023-01-31T00:42:31.980Z,0
2023-01-31T00:43:32.157Z,0
2023-01-31T00:44:32.955Z,0
2023-01-31T00:45:33.836Z,0
2023-01-31T00:46:34.635Z,0
2023-01-31T00:47:34.534Z,0
2023-01-31T00:48:35.391Z,0
2023-01-31T00:49:35.434Z,0
2023-01-31T00:50:36.011Z,0
2023-01-31T00:51:38.386Z,0
2023-01-31T00:52:37.094Z,0
2023-01-31T00:53:38.437Z,0
2023-01-31T00:54:39.395Z,0
2023-01-31T00:55:41.120Z,0
2023-01-31T00:56:41.529Z,0
2023-01-31T00:57:42.533Z,0
2023-01-31T00:58:42.890Z,0
2023-01-31T00:59:43.085Z,0
2023-01-31T01:00:43.648Z,0
2023-01-31T01:01:43.801Z,0
2023-01-31T01:02:44.572Z,0
2023-01-31T01:03:43.969Z,0
2023-01-31T01:04:45.272Z,0
2023-01-31T01:05:45.768Z,0
2023-01-31T01:06:46.885Z,0
2023-01-31T01:07:46.498Z,0
2023-01-31T01:08:48.338Z,0
2023-01-31T01:09:47.986Z,0
2023-01-31T01:10:48.942Z,0
2023-01-31T01:11:50.464Z,0
2023-01-31T01:12:50.104Z,0
2023-01-31T01:13:51.533Z,0
2023-01-31T01:14:52.095Z,0
2023-01-31T01:15:52.334Z,0
2023-01-31T01:16:52.840Z,0
2023-01-31T01:17:53.205Z,0
2023-01-31T01:18:54.399Z,0
2023-01-31T01:19:55.026Z,0
2023-01-31T01:20:55.962Z,0
2023-01-31T01:21:55.914Z,0
2023-01-31T01:22:56.841Z,0
2023-01-31T01:23:57.073Z,0
2023-01-31T01:24:57.989Z,0
2023-01-31T01:25:58.905Z,0
2023-01-31T01:26:59.704Z,0
2023-01-31T01:27:59.623Z,0
2023-01-31T01:29:00.902Z,0
2023-01-31T01:30:01.168Z,0
2023-01-31T01:31:00.992Z,0
2023-01-31T01:32:02.464Z,0
2023-01-31T01:33:02.196Z,0
2023-01-31T01:34:03.685Z,0
2023-01-31T01:35:03.323Z,0
2023-01-31T01:36:04.537Z,0
2023-01-31T01:37:05.849Z,0
2023-01-31T01:38:05.788Z,0
2023-01-31T01:39:05.710Z,0
2023-01-31T01:40:06.929Z,0
2023-01-31T01:41:07.556Z,0
2023-01-31T01:42:08.042Z,0
2023-01-31T01:43:08.241Z,0
2023-01-31T01:44:08.779Z,0
2023-01-31T01:45:08.755Z,0
2023-01-31T01:46:09.572Z,0
2023-01-31T01:47:09.557Z,0
2023-01-31T01:48:10.184Z,0
2023-01-31T01:49:11.402Z,0
2023-01-31T01:50:11.329Z,0
2023-01-31T01:51:12.330Z,0
2023-01-31T01:52:13.232Z,0
2023-01-31T01:53:13.689Z,0
2023-01-31T01:54:15.228Z,0
2023-01-31T01:55:15.158Z,0
2023-01-31T01:56:15.700Z,0
2023-01-31T01:57:15.685Z,0
2023-01-31T01:58:16.872Z,0
2023-01-31T01:59:17.857Z,0
2023-01-31T02:00:18.396Z,0
2023-01-31T02:01:18.563Z,0
2023-01-31T02:02:20.094Z,0
2023-01-31T02:03:19.908Z,0
2023-01-31T02:04:20.586Z,0
2023-01-31T02:05:21.809Z,0
2023-01-31T02:06:22.232Z,0
2023-01-31T02:07:23.268Z,0
2023-01-31T02:08:23.462Z,0
2023-01-31T02:09:24.381Z,0
2023-01-31T02:10:24.500Z,0
2023-01-31T02:11:25.634Z,0
2023-01-31T02:12:27.154Z,0
2023-01-31T02:13:27.434Z,0
2023-01-31T02:14:28.190Z,0
2023-01-31T02:15:28.540Z,0
2023-01-31T02:16:29.256Z,0
2023-01-31T02:17:29.354Z,0
2023-01-31T02:18:29.089Z,0
2023-01-31T02:19:29.734Z,0
2023-01-31T02:20:30.634Z,0
2023-01-31T02:21:30.704Z,0
2023-01-31T02:22:30.432Z,0
2023-01-31T02:23:32.690Z,0
2023-01-31T02:24:32.723Z,0
2023-01-31T02:25:34.923Z,0
2023-01-31T02:26:34.780Z,0
2023-01-31T02:27:35.525Z,0
2023-01-31T02:28:35.593Z,0
2023-01-31T02:29:36.980Z,0
2023-01-31T02:30:38.006Z,0
2023-01-31T02:31:37.441Z,0
2023-01-31T02:32:38.572Z,0
2023-01-31T02:33:38.223Z,0
2023-01-31T02:34:39.735Z,0
2023-01-31T02:35:39.981Z,0
2023-01-31T02:36:40.174Z,0
2023-01-31T02:37:40.727Z,0
2023-01-31T02:38:41.205Z,0
2023-01-31T02:39:42.662Z,0
2023-01-31T02:40:42.587Z,0
2023-01-31T02:41:43.522Z,0
2023-01-31T02:42:44.447Z,0
2023-01-31T02:43:44.633Z,0
2023-01-31T02:44:44.891Z,0
2023-01-31T02:45:45.789Z,0
2023-01-31T02:46:46.083Z,0
2023-01-31T02:47:47.327Z,0
2023-01-31T02:48:48.077Z,0
2023-01-31T02:49:47.788Z,0
2023-01-31T02:50:48.693Z,0
2023-01-31T02:51:49.314Z,0
2023-01-31T02:52:49.531Z,0
2023-01-31T02:53:49.445Z,0
2023-01-31T02:54:50.535Z,0
2023-01-31T02:55:51.466Z,0
2023-01-31T02:56:51.400Z,0
2023-01-31T02:57:51.971Z,0
2023-01-31T02:58:52.182Z,0
2023-01-31T02:59:53.152Z,0
2023-01-31T03:00:53.510Z,0
2023-01-31T03:01:54.063Z,0
2023-01-31T03:02:54.534Z,0
2023-01-31T03:03:54.762Z,0
2023-01-31T03:04:54.125Z,0
2023-01-31T03:05:54.766Z,0
2023-01-31T03:06:55.438Z,0
2023-01-31T03:07:56.771Z,0
2023-01-31T03:08:57.309Z,0
2023-01-31T03:09:57.545Z,0
2023-01-31T03:10:57.524Z,0
2023-01-31T03:11:59.024Z,0
2023-01-31T03:12:58.977Z,0
2023-01-31T03:13:59.659Z,0
2023-01-31T03:15:01.211Z,0
2023-01-31T03:16:01.225Z,0
2023-01-31T03:17:02.117Z,0
2023-01-31T03:18:02.757Z,0
2023-01-31T03:19:03.239Z,0
2023-01-31T03:20:04.172Z,0
2023-01-31T03:21:04.676Z,0
2023-01-31T03:22:04.577Z,0
2023-01-31T03:23:05.528Z,0
2023-01-31T03:24:07.062Z,0
2023-01-31T03:25:06.414Z,0
2023-01-31T03:26:08.066Z,0
2023-01-31T03:27:08.475Z,0
2023-01-31T03:28:09.532Z,0
2023-01-31T03:29:09.167Z,0
2023-01-31T03:30:10.468Z,0
2023-01-31T03:31:11.674Z,0
2023-01-31T03:32:11.755Z,0
2023-01-31T03:33:11.711Z,0
2023-01-31T03:34:12.870Z,0
2023-01-31T03:35:12.905Z,0
2023-01-31T03:36:14.110Z,0
2023-01-31T03:37:15.500Z,0
2023-01-31T03:38:15.420Z,0
2023-01-31T03:39:17.632Z,0
2023-01-31T03:40:17.714Z,0
2023-01-31T03:41:18.473Z,0
2023-01-31T03:42:18.581Z,0
2023-01-31T03:43:19.316Z,0
2023-01-31T03:44:20.154Z,0
2023-01-31T03:45:21.610Z,0
2023-01-31T03:46:22.812Z,0
2023-01-31T03:47:21.481Z,0
2023-01-31T03:48:22.464Z,0
2023-01-31T03:49:22.923Z,0
2023-01-31T03:50:23.018Z,0
2023-01-31T03:51:23.688Z,0
2023-01-31T03:52:24.586Z,0
2023-01-31T03:53:25.922Z,0
2023-01-31T03:54:26.436Z,0
2023-01-31T03:55:27.616Z,0
2023-01-31T03:56:28.051Z,0
2023-01-31T03:57:28.690Z,0
2023-01-31T03:58:29.706Z,0
2023-01-31T03:59:30.192Z,0
2023-01-31T04:00:30.174Z,0
2023-01-31T04:01:31.536Z,0
2023-01-31T04:02:32.505Z,0
2023-01-31T04:03:32.866Z,0
2023-01-31T04:04:33.093Z,0
2023-01-31T04:05:34.574Z,0
2023-01-31T04:06:35.077Z,0
2023-01-31T04:07:35.028Z,0
2023-01-31T04:08:36.057Z,0
2023-01-31T04:09:36.251Z,0
2023-01-31T04:10:37.742Z,0
2023-01-31T04:11:37.550Z,0
2023-01-31T04:12:37.903Z,0
2023-01-31T04:13:38.965Z,0
2023-01-31T04:14:39.880Z,0
2023-01-31T04:15:40.154Z,0
2023-01-31T04:16:40.788Z,0
2023-01-31T04:17:40.746Z,0
2023-01-31T04:18:44.049Z,0
2023-01-31T04:19:42.276Z,0
2023-01-31T04:20:42.913Z,0
2023-01-31T04:21:43.627Z,0
2023-01-31T04:22:44.423Z,0
2023-01-31T04:23:44.875Z,0
2023-01-31T04:24:45.100Z,0
2023-01-31T04:25:45.756Z,0
2023-01-31T04:26:45.831Z,0
2023-01-31T04:27:46.527Z,0
2023-01-31T04:28:47.882Z,0
2023-01-31T04:29:48.240Z,0
2023-01-31T04:30:49.802Z,0
2023-01-31T04:31:50.009Z,0
2023-01-31T04:32:50.190Z,0
2023-01-31T04:33:51.120Z,0
2023-01-31T04:34:52.037Z,0
2023-01-31T04:35:53.287Z,0
2023-01-31T04:36:53.513Z,0
2023-01-31T04:37:54.435Z,0
2023-01-31T04:38:54.730Z,0
2023-01-31T04:39:55.656Z,0
2023-01-31T04:40:56.295Z,0
2023-01-31T04:41:56.812Z,0
2023-01-31T04:42:56.725Z,0
2023-01-31T04:43:57.951Z,0
2023-01-31T04:44:58.158Z,0
2023-01-31T04:45:58.438Z,0
2023-01-31T04:47:00.066Z,0
2023-01-31T04:48:00.364Z,0
2023-01-31T04:49:00.966Z,0
2023-01-31T04:50:00.899Z,0
2023-01-31T04:51:01.831Z,0
2023-01-31T04:52:02.037Z,0
2023-01-31T04:53:03.246Z,0
2023-01-31T04:54:03.590Z,0
2023-01-31T04:55:04.379Z,0
2023-01-31T04:56:04.648Z,0
2023-01-31T04:57:05.128Z,0
2023-01-31T04:58:06.741Z,0
2023-01-31T04:59:05.592Z,0
2023-01-31T05:00:06.543Z,0
2023-01-31T05:01:08.565Z,0
2023-01-31T05:02:08.423Z,0
2023-01-31T05:03:09.049Z,0
2023-01-31T05:04:09.309Z,0
2023-01-31T05:05:09.519Z,0
2023-01-31T05:06:11.207Z,0
2023-01-31T05:07:11.449Z,0
2023-01-31T05:08:12.617Z,0
2023-01-31T05:09:12.967Z,0
2023-01-31T05:10:13.177Z,0
2023-01-31T05:11:15.704Z,0
2023-01-31T05:12:13.935Z,0
2023-01-31T05:13:14.883Z,0
2023-01-31T05:14:15.978Z,0
2023-01-31T05:15:15.924Z,0
2023-01-31T05:16:17.686Z,0
2023-01-31T05:17:17.351Z,0
2023-01-31T05:18:17.887Z,0
2023-01-31T05:19:18.886Z,0
2023-01-31T05:20:19.117Z,0
2023-01-31T05:21:20.059Z,0
2023-01-31T05:22:20.269Z,0
2023-01-31T05:23:21.569Z,0
2023-01-31T05:24:21.770Z,0
2023-01-31T05:25:23.142Z,0
2023-01-31T05:26:23.146Z,0
2023-01-31T05:27:23.209Z,0
2023-01-31T05:28:24.320Z,0
2023-01-31T05:29:24.709Z,0
2023-01-31T05:30:25.718Z,0
2023-01-31T05:31:27.304Z,0
2023-01-31T05:32:27.301Z,0
2023-01-31T05:33:28.750Z,0
2023-01-31T05:34:28.250Z,0
2023-01-31T05:35:29.770Z,0
2023-01-31T05:36:29.985Z,0
2023-01-31T05:37:31.204Z,0
2023-01-31T05:38:31.333Z,0
2023-01-31T05:39:32.283Z,0
2023-01-31T05:40:32.342Z,0
2023-01-31T05:41:33.046Z,0
2023-01-31T05:42:33.013Z,0
2023-01-31T05:43:36.269Z,0
2023-01-31T05:44:34.852Z,0
2023-01-31T05:45:35.421Z,0
2023-01-31T05:46:37.062Z,0
2023-01-31T05:47:36.837Z,0
2023-01-31T05:48:37.027Z,0
2023-01-31T05:49:37.847Z,0
2023-01-31T05:50:38.220Z,0
2023-01-31T05:51:39.429Z,0
2023-01-31T05:52:40.636Z,0
2023-01-31T05:53:41.123Z,0
2023-01-31T05:54:41.334Z,0
2023-01-31T05:55:42.155Z,0
2023-01-31T05:56:43.838Z,0
2023-01-31T05:57:43.484Z,0
2023-01-31T05:58:44.717Z,0
2023-01-31T05:59:44.733Z,0
2023-01-31T06:00:45.675Z,0
2023-01-31T06:01:46.964Z,0
2023-01-31T06:02:48.008Z,0
2023-01-31T06:03:48.101Z,0
2023-01-31T06:04:49.022Z,0
2023-01-31T06:05:50.208Z,0
2023-01-31T06:06:51.168Z,0
2023-01-31T06:07:52.367Z,0
2023-01-31T06:08:52.992Z,0
2023-01-31T06:09:53.797Z,0
2023-01-31T06:10:54.719Z,0
2023-01-31T06:11:55.488Z,0
2023-01-31T06:12:56.153Z,0
2023-01-31T06:13:57.101Z,0
2023-01-31T06:14:58.192Z,0
2023-01-31T06:15:58.137Z,0
2023-01-31T06:16:59.252Z,0
2023-01-31T06:17:59.791Z,4
2023-01-31T06:19:00.366Z,4
2023-01-31T06:20:00.309Z,0
2023-01-31T06:21:00.831Z,0
2023-01-31T06:22:00.802Z,4
2023-01-31T06:23:01.557Z,4
2023-01-31T06:24:02.773Z,0
2023-01-31T06:25:04.028Z,4
2023-01-31T06:26:04.954Z,4
2023-01-31T06:27:05.306Z,4
2023-01-31T06:28:05.806Z,8
2023-01-31T06:29:06.753Z,4
2023-01-31T06:30:06.523Z,8
2023-01-31T06:31:08.444Z,8
2023-01-31T06:32:08.198Z,12
2023-01-31T06:33:08.800Z,12
2023-01-31T06:34:08.483Z,12
2023-01-31T06:35:09.833Z,12
2023-01-31T06:36:11.071Z,16
2023-01-31T06:37:10.938Z,20
2023-01-31T06:38:11.868Z,24
2023-01-31T06:39:12.084Z,24
2023-01-31T06:40:13.089Z,28
2023-01-31T06:41:13.297Z,28
2023-01-31T06:42:13.640Z,32
2023-01-31T06:43:14.600Z,40
2023-01-31T06:44:14.841Z,44
2023-01-31T06:45:15.473Z,44
2023-01-31T06:46:16.841Z,48
2023-01-31T06:47:16.877Z,56
2023-01-31T06:48:17.159Z,56
2023-01-31T06:49:17.129Z,64
2023-01-31T06:50:18.149Z,76
2023-01-31T06:51:19.103Z,84
2023-01-31T06:52:20.941Z,84
2023-01-31T06:53:21.157Z,88
2023-01-31T06:54:21.128Z,92
2023-01-31T06:55:22.208Z,100
2023-01-31T06:56:22.578Z,108
2023-01-31T06:57:22.199Z,112
2023-01-31T06:58:26.595Z,116
2023-01-31T06:59:23.794Z,120
2023-01-31T07:00:24.367Z,128
2023-01-31T07:01:24.349Z,132
2023-01-31T07:02:24.639Z,136
2023-01-31T07:03:25.509Z,140
2023-01-31T07:04:25.092Z,144
2023-01-31T07:05:27.102Z,152
2023-01-31T07:06:27.025Z,156
2023-01-31T07:07:26.813Z,168
2023-01-31T07:08:28.512Z,184
2023-01-31T07:09:28.821Z,196
2023-01-31T07:10:28.957Z,200
2023-01-31T07:11:29.328Z,208
2023-01-31T07:12:30.295Z,224
2023-01-31T07:13:30.260Z,244
2023-01-31T07:14:31.451Z,276
2023-01-31T07:15:32.608Z,340
2023-01-31T07:16:33.102Z,348
2023-01-31T07:17:33.371Z,300
2023-01-31T07:18:33.654Z,312
2023-01-31T07:19:34.092Z,352
2023-01-31T07:20:35.362Z,384
2023-01-31T07:21:36.710Z,408
2023-01-31T07:22:35.798Z,420
2023-01-31T07:23:36.338Z,428
2023-01-31T07:24:36.640Z,424
2023-01-31T07:25:37.085Z,452
2023-01-31T07:26:37.941Z,492
2023-01-31T07:27:38.059Z,544
2023-01-31T07:28:39.147Z,556
2023-01-31T07:29:39.442Z,968
2023-01-31T07:30:40.303Z,572
2023-01-31T07:31:40.576Z,552
2023-01-31T07:32:41.526Z,724
2023-01-31T07:33:41.517Z,752
2023-01-31T07:34:42.359Z,532
2023-01-31T07:35:42.289Z,480
2023-01-31T07:36:43.273Z,468
2023-01-31T07:37:44.479Z,488
2023-01-31T07:38:44.716Z,548
2023-01-31T07:39:45.931Z,596
2023-01-31T07:40:45.748Z,588
2023-01-31T07:41:46.971Z,568
2023-01-31T07:42:47.490Z,536
2023-01-31T07:43:47.425Z,584
2023-01-31T07:44:48.720Z,684
2023-01-31T07:45:49.959Z,684
2023-01-31T07:46:49.866Z,716
2023-01-31T07:47:50.171Z,732
2023-01-31T07:48:51.139Z,752
2023-01-31T07:49:51.675Z,744
2023-01-31T07:50:51.773Z,784
2023-01-31T07:51:52.714Z,928
2023-01-31T07:52:53.493Z,2532
2023-01-31T07:53:53.528Z,3564
2023-01-31T07:54:54.863Z,4368
2023-01-31T07:55:55.355Z,4856
2023-01-31T07:56:55.701Z,5476
2023-01-31T07:57:56.643Z,5236
2023-01-31T07:58:56.893Z,4864
2023-01-31T07:59:56.553Z,4560
2023-01-31T08:00:57.918Z,1700
2023-01-31T08:02:02.033Z,4416
2023-01-31T08:02:59.492Z,5604
2023-01-31T08:04:07.668Z,7064
2023-01-31T08:04:59.656Z,1608
2023-01-31T08:06:00.106Z,5908
2023-01-31T08:07:00.447Z,8072
2023-01-31T08:08:00.411Z,2404
2023-01-31T08:09:01.378Z,1488
2023-01-31T08:10:02.351Z,1476
2023-01-31T08:11:02.425Z,1424
2023-01-31T08:12:03.674Z,1508
2023-01-31T08:13:03.607Z,1500
2023-01-31T08:14:03.835Z,1380
2023-01-31T08:15:04.051Z,2296
2023-01-31T08:16:04.977Z,1900
2023-01-31T08:17:06.304Z,5880
2023-01-31T08:18:08.262Z,1392
2023-01-31T08:19:07.681Z,1712
2023-01-31T08:20:07.888Z,2372
2023-01-31T08:21:08.940Z,6488
2023-01-31T08:22:09.452Z,7144
2023-01-31T08:23:09.674Z,4956
2023-01-31T08:24:10.228Z,8792
2023-01-31T08:25:10.463Z,9780
2023-01-31T08:26:10.697Z,10120
2023-01-31T08:27:10.978Z,9264
2023-01-31T08:28:11.294Z,8256
2023-01-31T08:29:12.227Z,6540
2023-01-31T08:30:12.766Z,4768
2023-01-31T08:31:22.175Z,3220
2023-01-31T08:32:21.831Z,2704
2023-01-31T08:33:22.443Z,2552
2023-01-31T08:34:22.427Z,2352
2023-01-31T08:35:23.059Z,2280
2023-01-31T08:36:23.368Z,2584
2023-01-31T08:37:24.569Z,2816
2023-01-31T08:38:27.756Z,3196
2023-01-31T08:39:25.017Z,3816
2023-01-31T08:40:25.295Z,3760
2023-01-31T08:41:26.059Z,3616
2023-01-31T08:42:27.338Z,3928
2023-01-31T08:43:27.252Z,4232
2023-01-31T08:44:27.757Z,4440
2023-01-31T08:45:29.184Z,4052
2023-01-31T08:46:29.483Z,3784
2023-01-31T08:47:30.228Z,4212
2023-01-31T08:48:30.637Z,4600
2023-01-31T08:49:30.670Z,4564
2023-01-31T08:50:40.464Z,4232
2023-01-31T08:51:32.537Z,5088
2023-01-31T08:52:33.073Z,4236
2023-01-31T08:53:33.527Z,3264
2023-01-31T08:54:33.542Z,3508
2023-01-31T08:55:35.739Z,4192
2023-01-31T08:56:34.975Z,3656
2023-01-31T08:57:39.265Z,2688
2023-01-31T08:58:36.764Z,2184
2023-01-31T08:59:37.746Z,2140
2023-01-31T09:00:39.138Z,2144
2023-01-31T09:01:39.175Z,2140
2023-01-31T09:02:39.671Z,2260
2023-01-31T09:03:41.676Z,2996
2023-01-31T09:04:41.274Z,3124
2023-01-31T09:05:41.504Z,2404
2023-01-31T09:06:42.708Z,2524
2023-01-31T09:07:43.855Z,3212
2023-01-31T09:08:43.339Z,4188
2023-01-31T09:09:44.224Z,4944
2023-01-31T09:10:45.355Z,4048
2023-01-31T09:11:45.275Z,4136
2023-01-31T09:12:45.646Z,4980
2023-01-31T09:13:45.886Z,5220
2023-01-31T09:14:46.923Z,4496
2023-01-31T09:15:46.868Z,3512
2023-01-31T09:16:49.627Z,3072
2023-01-31T09:17:48.985Z,3104
2023-01-31T09:18:50.213Z,3072
2023-01-31T09:19:50.759Z,3092
2023-01-31T09:20:50.970Z,4176
2023-01-31T09:21:51.426Z,5244
2023-01-31T09:22:51.674Z,5628
2023-01-31T09:23:54.020Z,4720
2023-01-31T09:24:53.230Z,4996
2023-01-31T09:25:59.275Z,5728
2023-01-31T09:26:55.672Z,6092
2023-01-31T09:27:56.109Z,5940
2023-01-31T09:28:56.437Z,6148
2023-01-31T09:29:56.599Z,5876
2023-01-31T09:30:56.999Z,5532
2023-01-31T09:31:58.147Z,4292
2023-01-31T09:32:58.704Z,3916
2023-01-31T09:33:58.986Z,5012
2023-01-31T09:34:59.121Z,5272
2023-01-31T09:35:59.325Z,5064
2023-01-31T09:37:00.297Z,5312
2023-01-31T09:38:00.554Z,5656
2023-01-31T09:39:00.841Z,6368
2023-01-31T09:40:01.081Z,7136
2023-01-31T09:41:01.304Z,7828
2023-01-31T09:42:02.329Z,8344
2023-01-31T09:43:03.316Z,8684
2023-01-31T09:44:03.549Z,7936
2023-01-31T09:45:04.775Z,8528
2023-01-31T09:46:05.003Z,9164
2023-01-31T09:47:06.426Z,8020
2023-01-31T09:48:05.912Z,6720
2023-01-31T09:49:07.517Z,6328
2023-01-31T09:50:09.188Z,6208
2023-01-31T09:51:07.876Z,6716
2023-01-31T09:52:08.307Z,6112
2023-01-31T09:53:08.822Z,5852
2023-01-31T09:54:08.811Z,7064
2023-01-31T09:55:09.062Z,6788
2023-01-31T09:56:10.032Z,5492
2023-01-31T09:57:10.187Z,4524
2023-01-31T09:58:11.119Z,4676
2023-01-31T09:59:11.474Z,4848
2023-01-31T10:00:11.961Z,5080
2023-01-31T10:01:13.210Z,5124
2023-01-31T10:02:14.049Z,5360
2023-01-31T10:03:14.558Z,5136
2023-01-31T10:04:14.701Z,4624
2023-01-31T10:05:15.035Z,4556
2023-01-31T10:06:15.999Z,4908
2023-01-31T10:07:15.944Z,5132
2023-01-31T10:08:17.471Z,5616
2023-01-31T10:09:17.679Z,4288
2023-01-31T10:10:19.179Z,4436
2023-01-31T10:11:19.402Z,7124
2023-01-31T10:12:19.830Z,6496
2023-01-31T10:13:20.328Z,6252
2023-01-31T10:14:20.851Z,6536
2023-01-31T10:15:21.321Z,6660
2023-01-31T10:16:21.905Z,6268
2023-01-31T10:17:22.368Z,5880
2023-01-31T10:18:21.865Z,6296
2023-01-31T10:19:23.138Z,6468
2023-01-31T10:20:24.090Z,7092
2023-01-31T10:21:23.905Z,8036
2023-01-31T10:22:24.303Z,9360
2023-01-31T10:23:25.349Z,10148
2023-01-31T10:24:25.046Z,10172
2023-01-31T10:25:26.588Z,9156
2023-01-31T10:26:27.527Z,8376
2023-01-31T10:27:28.153Z,7124
2023-01-31T10:28:28.664Z,6336
2023-01-31T10:29:30.726Z,5664
2023-01-31T10:30:31.985Z,5192
2023-01-31T10:31:32.106Z,5388
2023-01-31T10:32:31.970Z,5740
2023-01-31T10:33:32.269Z,5668
2023-01-31T10:34:33.178Z,5348
2023-01-31T10:35:34.455Z,5428
2023-01-31T10:36:34.254Z,5180
2023-01-31T10:37:34.907Z,4960
2023-01-31T10:38:36.542Z,4980
2023-01-31T10:39:37.817Z,5100
2023-01-31T10:40:37.192Z,5120
2023-01-31T10:41:37.133Z,5204
2023-01-31T10:42:38.054Z,5156
2023-01-31T10:43:40.643Z,5536
2023-01-31T10:44:38.500Z,5792
2023-01-31T10:45:39.312Z,5336
2023-01-31T10:46:40.305Z,4296
2023-01-31T10:47:39.965Z,3996
2023-01-31T10:48:41.484Z,3872
2023-01-31T10:49:42.080Z,3852
2023-01-31T10:50:42.112Z,3848
2023-01-31T10:51:43.061Z,3828
2023-01-31T10:52:43.906Z,3972
2023-01-31T10:53:44.331Z,4436
2023-01-31T10:54:45.223Z,4188
2023-01-31T10:55:46.327Z,4604
2023-01-31T10:56:45.680Z,5448
2023-01-31T10:57:46.675Z,6400
2023-01-31T10:58:47.205Z,4748
2023-01-31T10:59:47.706Z,4428
2023-01-31T11:00:48.156Z,4240
2023-01-31T11:01:48.224Z,4316
2023-01-31T11:02:49.575Z,4208
2023-01-31T11:03:49.305Z,4244
2023-01-31T11:04:50.659Z,4272
2023-01-31T11:05:50.646Z,4024
2023-01-31T11:06:51.313Z,3896
2023-01-31T11:07:52.968Z,3736
2023-01-31T11:08:53.507Z,3568
2023-01-31T11:09:53.716Z,3588
2023-01-31T11:10:54.363Z,3508
2023-01-31T11:11:55.001Z,3588
2023-01-31T11:12:55.072Z,4060
2023-01-31T11:13:56.000Z,7420
2023-01-31T11:14:56.206Z,13648
2023-01-31T11:15:56.440Z,10244
2023-01-31T11:16:56.895Z,13096
2023-01-31T11:17:56.445Z,8284
2023-01-31T11:18:57.435Z,8328
2023-01-31T11:19:58.610Z,13344
2023-01-31T11:20:59.185Z,9676
2023-01-31T11:21:59.416Z,11012
2023-01-31T11:23:00.148Z,9796
2023-01-31T11:24:00.249Z,11176
2023-01-31T11:25:01.511Z,11116
2023-01-31T11:26:02.460Z,8564
2023-01-31T11:27:03.701Z,7916
2023-01-31T11:28:04.215Z,9280
2023-01-31T11:29:03.974Z,7184
2023-01-31T11:30:06.362Z,8620
2023-01-31T11:31:05.933Z,12260
2023-01-31T11:32:06.211Z,6164
2023-01-31T11:33:07.334Z,6376
2023-01-31T11:34:08.587Z,5696
2023-01-31T11:35:08.929Z,5964
2023-01-31T11:36:09.533Z,5836
2023-01-31T11:37:09.768Z,5428
2023-01-31T11:38:10.020Z,5004
2023-01-31T11:39:10.982Z,4352
2023-01-31T11:40:11.719Z,4228
2023-01-31T11:41:12.995Z,4176
2023-01-31T11:42:13.718Z,4164
2023-01-31T11:43:14.476Z,4184
2023-01-31T11:44:15.723Z,4400
2023-01-31T11:45:15.647Z,4788
2023-01-31T11:46:16.891Z,5188
2023-01-31T11:47:16.699Z,5848
2023-01-31T11:48:17.662Z,4968
2023-01-31T11:49:17.721Z,5088
2023-01-31T11:50:19.020Z,3984
2023-01-31T11:51:18.569Z,3768
2023-01-31T11:52:18.792Z,3800
2023-01-31T11:53:19.885Z,3664
2023-01-31T11:54:20.195Z,3564
2023-01-31T11:55:20.894Z,3444
2023-01-31T11:56:21.584Z,3316
2023-01-31T11:57:22.822Z,3240
2023-01-31T11:58:23.326Z,3220
2023-01-31T11:59:23.562Z,3224
2023-01-31T12:00:23.891Z,3200
2023-01-31T12:01:24.872Z,3076
2023-01-31T12:02:25.582Z,3180
2023-01-31T12:03:25.716Z,3196
2023-01-31T12:04:26.447Z,3164
2023-01-31T12:05:27.037Z,3044
2023-01-31T12:06:27.085Z,2880
2023-01-31T12:07:28.031Z,2704
2023-01-31T12:08:29.913Z,2552
2023-01-31T12:09:28.814Z,2376
2023-01-31T12:10:29.449Z,2192
2023-01-31T12:11:29.409Z,2040
2023-01-31T12:12:30.963Z,1924
2023-01-31T12:13:31.791Z,1852
2023-01-31T12:14:32.312Z,1816
2023-01-31T12:15:32.727Z,1796
2023-01-31T12:16:33.442Z,1788
2023-01-31T12:17:33.437Z,1792
2023-01-31T12:18:34.613Z,1840
2023-01-31T12:19:35.169Z,1952
2023-01-31T12:20:40.602Z,2144
2023-01-31T12:21:35.943Z,2228
2023-01-31T12:22:37.175Z,2232
2023-01-31T12:23:36.753Z,2224
2023-01-31T12:24:38.021Z,2216
2023-01-31T12:25:38.279Z,2136
2023-01-31T12:26:38.816Z,2060
2023-01-31T12:27:38.921Z,2040
2023-01-31T12:28:40.154Z,2040
2023-01-31T12:29:40.094Z,2016
2023-01-31T12:30:41.461Z,2004
2023-01-31T12:31:41.393Z,2028
2023-01-31T12:32:41.777Z,1976
2023-01-31T12:33:42.216Z,1868
2023-01-31T12:35:08.132Z,1780
2023-01-31T12:35:42.793Z,1752
2023-01-31T12:36:43.531Z,1708
2023-01-31T12:37:44.493Z,1672
2023-01-31T12:38:45.045Z,1644
2023-01-31T12:39:45.628Z,1612
2023-01-31T12:40:45.952Z,1596
2023-01-31T12:41:45.914Z,1584
2023-01-31T12:42:46.839Z,1560
2023-01-31T12:43:47.463Z,1512
2023-01-31T12:44:47.447Z,1488
2023-01-31T12:45:48.469Z,1468
2023-01-31T12:46:54.821Z,1388
2023-01-31T12:47:50.088Z,1264
2023-01-31T12:48:51.057Z,1168
2023-01-31T12:49:51.300Z,1120
2023-01-31T12:50:51.918Z,1100
2023-01-31T12:51:52.642Z,1080
2023-01-31T12:52:53.242Z,1068
2023-01-31T12:53:53.372Z,1052
2023-01-31T12:54:53.628Z,1044
2023-01-31T12:55:54.303Z,1036
2023-01-31T12:56:55.549Z,1032
2023-01-31T12:57:56.544Z,1028
2023-01-31T12:59:19.133Z,1040
2023-01-31T12:59:58.145Z,1036
2023-01-31T13:00:59.110Z,1032
2023-01-31T13:02:00.699Z,1032
2023-01-31T13:03:01.131Z,1040
2023-01-31T13:04:01.157Z,1060
2023-01-31T13:05:02.405Z,1068
2023-01-31T13:06:03.455Z,1064
2023-01-31T13:07:04.745Z,1060
2023-01-31T13:08:04.989Z,1068
2023-01-31T13:09:19.186Z,1084
2023-01-31T13:10:05.569Z,1096
2023-01-31T13:11:06.739Z,1112
2023-01-31T13:12:07.358Z,1120
2023-01-31T13:13:07.604Z,1128
2023-01-31T13:14:07.716Z,1128
2023-01-31T13:15:08.445Z,1128
2023-01-31T13:16:09.651Z,1148
2023-01-31T13:17:10.304Z,1188
2023-01-31T13:18:10.806Z,1256
2023-01-31T13:19:11.433Z,1324
2023-01-31T13:20:11.649Z,1380
2023-01-31T13:21:11.926Z,1452
2023-01-31T13:22:12.615Z,1472
2023-01-31T13:23:13.871Z,1460
2023-01-31T13:24:13.959Z,1444
2023-01-31T13:25:15.190Z,1360
2023-01-31T13:26:15.848Z,1272
2023-01-31T13:27:15.832Z,1312
2023-01-31T13:28:16.772Z,1740
2023-01-31T13:29:17.430Z,5008
2023-01-31T13:30:18.258Z,5620
2023-01-31T13:31:20.016Z,7376
2023-01-31T13:32:20.372Z,7864
2023-01-31T13:33:22.556Z,7380
2023-01-31T13:34:21.971Z,7368
2023-01-31T13:35:22.510Z,7168
2023-01-31T13:36:23.257Z,6952
2023-01-31T13:37:23.565Z,6052
2023-01-31T13:38:23.783Z,6436
2023-01-31T13:39:24.355Z,6448
2023-01-31T13:40:24.641Z,7472
2023-01-31T13:41:24.897Z,8060
2023-01-31T13:42:26.115Z,6796
2023-01-31T13:43:26.416Z,7580
2023-01-31T13:44:26.479Z,7832
2023-01-31T13:45:28.229Z,6108
2023-01-31T13:46:28.193Z,3952
2023-01-31T13:47:28.736Z,3072
2023-01-31T13:48:28.698Z,2784
2023-01-31T13:49:29.910Z,2448
2023-01-31T13:50:29.556Z,2244
2023-01-31T13:51:31.424Z,2284
2023-01-31T13:52:31.712Z,2724
2023-01-31T13:53:32.702Z,3844
2023-01-31T13:54:32.607Z,4444
2023-01-31T13:55:34.271Z,4576
2023-01-31T13:56:34.391Z,4736
2023-01-31T13:57:35.045Z,5044
2023-01-31T13:58:36.019Z,5168
2023-01-31T13:59:36.554Z,3060
2023-01-31T14:00:36.535Z,3104
2023-01-31T14:01:38.034Z,3436
2023-01-31T14:02:38.448Z,2432
2023-01-31T14:03:38.459Z,1744
2023-01-31T14:04:40.438Z,1692
2023-01-31T14:05:39.039Z,1712
2023-01-31T14:06:39.348Z,1724
2023-01-31T14:07:39.901Z,1732
2023-01-31T14:08:40.132Z,1732